Etusivu
METAR-TAF:

METAR-TAF

Lentoasemat :

Obihiro, Japani

Leveyspiiri: 42-44N, Pituuspiiri: 143-13E, korkeus merenpinnasta: 149 m

Tämänhetkinen sää

Tämä raportti tehtiin 6 tuntia ja 41 minuuttia sitten, kello 11.00 UTC
Tuuli 12 kn luoteesta puuskistuen 22 kn:hen, vaihdellen lännen ja pohjoisen välillä
Lämpötila -6°C
Kosteus 41%
Ilmanpaine 1016 hPa
Näkyvyys 10 km tai enemmän
Muutamia pilviä 4000 ft:n korkeudessa

METAR: RJCB 241100Z 31012G22KT 280V350 9999 FEW040 M06/M17 Q1016

Aika: 02:41 (17:41 UTC)

Sääennuste

Tämä raportti tehtiin 34 minuuttia sitten, kello 17.07 UTC
Ennuste voimassa 24. päivästä klo 18 UTC - 26. päivään klo 00 UTC
Tuuli 10 kn pohjoisesta
Näkyvyys 10 km tai enemmän
Muutamia pilviä 3000 ft:n korkeudessa

TAF: RJCB 241707Z 2418/2600 35010KT 9999 FEW030

Säähavainnot ja -ennusteet yli 4000 lentoasemalta (METAR- ja TAF-raportit).

Käytössä olevat sääasemat on merkitty karttaan keltaisilla ja punaisilla pisteillä.

Aseta hiiri pisteen päälle nähdäksesi sääaseman nimen.

Klikkaa sitten nähdäksesi säähavainnot ja -ennusteet.

Kartan vaihtaminen: klikkaa mustalla rastilla varustettuja vihreitä pisteitä, niin voit zoomata sisään; viivalla varustettua vihreää pistettä, niin voit zoomata ulos tai vihreitä nuolia, niin pääset viereisille kartoille.


METAR-TAF: